createdAt,value
2023-04-07T00:01:34.059Z,90.22
2023-04-07T00:04:02.547Z,90.02
2023-04-07T00:06:30.780Z,90.69
2023-04-07T00:08:58.539Z,90.34
2023-04-07T00:11:27.877Z,90.11
2023-04-07T00:13:55.981Z,91.04
2023-04-07T00:16:24.231Z,91.03
2023-04-07T00:18:52.372Z,90.67
2023-04-07T00:21:20.244Z,90.93
2023-04-07T00:23:48.443Z,90.74
2023-04-07T00:26:16.622Z,90.96
2023-04-07T00:28:45.871Z,90.74
2023-04-07T00:31:13.854Z,90.97
2023-04-07T00:33:42.085Z,90.94
2023-04-07T00:36:10.509Z,91.08
2023-04-07T00:38:38.261Z,91.37
2023-04-07T00:41:06.469Z,90.54
2023-04-07T00:43:34.532Z,91.52
2023-04-07T00:46:03.914Z,90.61
2023-04-07T00:48:32.033Z,91.14
2023-04-07T00:50:59.995Z,90.97
2023-04-07T00:53:27.759Z,90.80
2023-04-07T00:55:55.813Z,90.90
2023-04-07T00:58:23.705Z,91.12
2023-04-07T01:00:58.055Z,90.68
2023-04-07T01:03:32.851Z,91.41
2023-04-07T01:06:02.831Z,91.22
2023-04-07T01:08:34.776Z,91.04
2023-04-07T01:11:08.957Z,91.12
2023-04-07T01:13:38.819Z,90.90
2023-04-07T01:16:12.727Z,91.64
2023-04-07T01:18:42.431Z,91.41
2023-04-07T01:21:16.471Z,91.35
2023-04-07T01:23:53.937Z,91.04
2023-04-07T01:26:24.920Z,91.49
2023-04-07T01:29:33.272Z,91.71
2023-04-07T01:32:02.486Z,91.63
2023-04-07T01:34:31.814Z,91.41
2023-04-07T01:37:00.912Z,91.03
2023-04-07T01:39:29.121Z,91.04
2023-04-07T01:41:57.386Z,90.81
2023-04-07T01:44:26.090Z,91.59
2023-04-07T01:46:55.690Z,91.38
2023-04-07T01:49:24.846Z,91.72
2023-04-07T01:51:52.713Z,91.76
2023-04-07T01:54:20.597Z,91.66
2023-04-07T01:56:48.339Z,90.96
2023-04-07T01:59:16.120Z,91.01
2023-04-07T02:01:44.145Z,91.05
2023-04-07T02:04:17.902Z,91.95
2023-04-07T02:06:50.224Z,91.44
2023-04-07T02:09:18.261Z,91.28
2023-04-07T02:11:47.119Z,91.40
2023-04-07T02:14:15.612Z,91.98
2023-04-07T02:16:45.626Z,91.19
2023-04-07T02:19:16.027Z,91.40
2023-04-07T02:21:45.739Z,91.51
2023-04-07T02:24:13.732Z,92.27
2023-04-07T02:26:41.887Z,91.83
2023-04-07T02:29:09.717Z,91.74
2023-04-07T02:31:37.542Z,91.61
2023-04-07T02:34:05.310Z,91.42
2023-04-07T02:36:34.512Z,91.14
2023-04-07T02:39:02.343Z,91.70
2023-04-07T02:41:30.128Z,91.20
2023-04-07T02:43:58.196Z,91.24
2023-04-07T02:46:26.125Z,91.62
2023-04-07T02:48:53.971Z,91.22
2023-04-07T02:51:21.748Z,91.76
2023-04-07T02:53:50.956Z,91.67
2023-04-07T02:56:18.774Z,91.66
2023-04-07T02:58:46.734Z,91.67
2023-04-07T03:01:14.619Z,91.43
2023-04-07T03:03:44.980Z,91.33
2023-04-07T03:06:12.972Z,91.24
2023-04-07T03:08:40.860Z,91.26
2023-04-07T03:11:10.013Z,91.42
2023-04-07T03:13:37.789Z,91.81
2023-04-07T03:16:05.697Z,91.92
2023-04-07T03:18:33.535Z,91.40
2023-04-07T03:21:01.319Z,91.75
2023-04-07T03:23:29.791Z,91.52
2023-04-07T03:25:58.752Z,91.56
2023-04-07T03:28:27.933Z,91.18
2023-04-07T03:30:55.774Z,91.09
2023-04-07T03:33:23.555Z,91.16
2023-04-07T03:35:51.524Z,91.70
2023-04-07T03:38:19.398Z,91.67
2023-04-07T03:40:47.927Z,91.53
2023-04-07T03:43:16.303Z,90.85
2023-04-07T03:45:45.457Z,91.80
2023-04-07T03:48:13.503Z,91.37
2023-04-07T03:50:41.542Z,91.14
2023-04-07T03:53:09.464Z,91.72
2023-04-07T03:55:37.664Z,91.03
2023-04-07T03:58:05.452Z,91.49
2023-04-07T04:00:33.686Z,91.03
2023-04-07T04:03:03.009Z,91.12
2023-04-07T04:05:30.884Z,91.24
2023-04-07T04:07:58.676Z,91.32
2023-04-07T04:10:27.292Z,91.28
2023-04-07T04:12:55.127Z,91.08
2023-04-07T04:15:23.076Z,91.42
2023-04-07T04:17:51.008Z,91.44
2023-04-07T04:20:22.217Z,91.52
2023-04-07T04:22:50.085Z,91.00
2023-04-07T04:25:18.233Z,91.26
2023-04-07T04:27:46.190Z,91.01
2023-04-07T04:30:14.208Z,90.82
2023-04-07T04:32:42.195Z,90.95
2023-04-07T04:35:10.966Z,90.60
2023-04-07T04:37:40.135Z,91.12
2023-04-07T04:40:09.497Z,90.68
2023-04-07T04:42:37.370Z,91.41
2023-04-07T04:45:05.900Z,91.20
2023-04-07T04:47:33.773Z,90.97
2023-04-07T04:50:01.723Z,91.02
2023-04-07T04:52:30.055Z,90.73
2023-04-07T04:54:59.244Z,91.16
2023-04-07T04:57:27.090Z,90.62
2023-04-07T04:59:54.840Z,91.16
2023-04-07T05:02:22.970Z,91.38
2023-04-07T05:04:51.034Z,91.38
2023-04-07T05:07:18.859Z,90.73
2023-04-07T05:09:46.644Z,90.74
2023-04-07T05:12:16.225Z,90.69
2023-04-07T05:14:43.975Z,90.86
2023-04-07T05:17:11.785Z,91.46
2023-04-07T05:19:39.561Z,91.10
2023-04-07T05:22:07.335Z,90.77
2023-04-07T05:24:35.495Z,91.42
2023-04-07T05:27:03.281Z,91.30
2023-04-07T05:29:32.444Z,91.40
2023-04-07T05:32:01.569Z,90.95
2023-04-07T05:34:29.446Z,91.22
2023-04-07T05:36:57.252Z,90.55
2023-04-07T05:39:25.086Z,90.62
2023-04-07T05:41:53.148Z,90.84
2023-04-07T05:44:21.156Z,91.12
2023-04-07T05:46:50.275Z,90.66
2023-04-07T05:49:19.918Z,90.95
2023-04-07T05:51:49.170Z,90.98
2023-04-07T05:54:17.531Z,91.16
2023-04-07T05:56:45.523Z,90.59
2023-04-07T05:59:13.318Z,91.14
2023-04-07T06:01:41.273Z,90.75
2023-04-07T06:04:10.461Z,91.05
2023-04-07T06:06:38.668Z,91.10
2023-04-07T06:09:07.741Z,90.62
2023-04-07T06:11:36.097Z,91.34
2023-04-07T06:14:03.881Z,90.71
2023-04-07T06:16:32.024Z,90.96
2023-04-07T06:18:59.834Z,90.48
2023-04-07T06:21:29.022Z,90.76
2023-04-07T06:23:56.761Z,90.28
2023-04-07T06:26:24.674Z,90.27
2023-04-07T06:28:53.037Z,90.62
2023-04-07T06:31:21.173Z,90.44
2023-04-07T06:33:49.205Z,90.41
2023-04-07T06:36:17.459Z,90.31
2023-04-07T06:38:47.260Z,90.45
2023-04-07T06:41:17.174Z,90.26
2023-04-07T06:43:45.085Z,90.19
2023-04-07T06:46:12.960Z,90.78
2023-04-07T06:48:40.844Z,90.79
2023-04-07T06:51:08.698Z,90.23
2023-04-07T06:53:36.519Z,90.50
2023-04-07T06:56:06.983Z,90.39
2023-04-07T06:58:35.444Z,90.61
2023-04-07T07:01:03.889Z,90.20
2023-04-07T07:03:32.268Z,90.19
2023-04-07T07:06:00.751Z,90.25
2023-04-07T07:08:29.792Z,90.34
2023-04-07T07:10:57.667Z,90.47
2023-04-07T07:13:27.632Z,90.46
2023-04-07T07:15:55.525Z,90.46
2023-04-07T07:18:23.355Z,90.52
2023-04-07T07:20:51.672Z,90.48
2023-04-07T07:23:19.502Z,90.14
2023-04-07T07:25:47.267Z,90.19
2023-04-07T07:28:15.069Z,89.91
2023-04-07T07:30:44.250Z,89.95
2023-04-07T07:33:12.123Z,89.73
2023-04-07T07:35:40.572Z,89.69
2023-04-07T07:38:08.557Z,89.61
2023-04-07T07:40:36.332Z,89.10
2023-04-07T07:43:04.187Z,88.89
2023-04-07T07:45:31.980Z,89.29
2023-04-07T07:48:01.189Z,89.14
2023-04-07T07:50:29.133Z,88.81
2023-04-07T07:52:56.952Z,89.08
2023-04-07T07:55:24.894Z,89.37
2023-04-07T07:57:52.677Z,89.21
2023-04-07T08:00:20.927Z,89.11
2023-04-07T08:02:48.751Z,89.60
2023-04-07T08:05:17.896Z,89.12
2023-04-07T08:07:46.918Z,89.50
2023-04-07T08:10:14.968Z,89.44
2023-04-07T08:12:42.794Z,89.31
2023-04-07T08:15:11.249Z,89.12
2023-04-07T08:17:39.322Z,89.22
2023-04-07T08:20:10.498Z,89.12
2023-04-07T08:22:39.636Z,89.04
2023-04-07T08:25:07.621Z,89.35
2023-04-07T08:27:35.684Z,88.66
2023-04-07T08:30:06.436Z,88.72
2023-04-07T08:32:37.864Z,88.59
2023-04-07T08:35:06.384Z,88.70
2023-04-07T08:37:34.488Z,88.68
2023-04-07T08:40:04.877Z,88.40
2023-04-07T08:42:34.256Z,88.35
2023-04-07T08:45:04.765Z,88.05
2023-04-07T08:47:34.143Z,88.00
2023-04-07T08:50:03.818Z,88.04
2023-04-07T08:52:35.462Z,88.11
2023-04-07T08:55:06.950Z,88.13
2023-04-07T08:57:35.436Z,88.20
2023-04-07T09:00:05.839Z,87.86
2023-04-07T09:02:35.261Z,88.07
2023-04-07T09:05:05.452Z,88.20
2023-04-07T09:07:34.799Z,87.95
2023-04-07T09:10:04.482Z,87.65
2023-04-07T09:12:33.095Z,87.76
2023-04-07T09:15:01.470Z,87.36
2023-04-07T09:17:30.417Z,87.20
2023-04-07T09:19:59.073Z,87.07
2023-04-07T09:22:35.994Z,86.97
2023-04-07T09:25:18.375Z,86.32
2023-04-07T09:28:00.258Z,86.29
2023-04-07T09:30:29.261Z,86.39
2023-04-07T09:32:57.497Z,86.67
2023-04-07T09:35:26.544Z,86.45
2023-04-07T09:38:04.144Z,86.43
2023-04-07T09:40:34.116Z,86.44
2023-04-07T09:43:02.774Z,86.28
2023-04-07T09:45:35.144Z,85.96
2023-04-07T09:48:07.157Z,85.60
2023-04-07T09:50:36.527Z,85.13
2023-04-07T09:53:05.021Z,84.68
2023-04-07T09:55:35.025Z,83.74
2023-04-07T09:58:03.460Z,84.18
2023-04-07T10:00:31.250Z,83.80
2023-04-07T10:02:59.454Z,84.09
2023-04-07T10:05:27.414Z,82.69
2023-04-07T10:07:55.603Z,82.39
2023-04-07T10:10:23.506Z,82.68
2023-04-07T10:12:53.962Z,81.96
2023-04-07T10:15:21.877Z,80.75
2023-04-07T10:17:50.516Z,81.20
2023-04-07T10:20:20.853Z,80.51
2023-04-07T10:22:50.238Z,80.65
2023-04-07T10:25:20.074Z,80.59
2023-04-07T10:27:51.284Z,80.29
2023-04-07T10:30:24.221Z,79.77
2023-04-07T10:32:54.199Z,79.88
2023-04-07T10:35:23.124Z,79.26
2023-04-07T10:38:13.988Z,78.74
2023-04-07T10:40:43.087Z,79.15
2023-04-07T10:43:11.935Z,78.52
2023-04-07T10:45:59.673Z,78.55
2023-04-07T10:48:33.086Z,78.67
2023-04-07T10:51:17.762Z,78.29
2023-04-07T10:54:20.585Z,77.43
2023-04-07T10:57:17.084Z,78.19
2023-04-07T11:00:27.287Z,77.10
2023-04-07T11:02:56.552Z,77.81
2023-04-07T11:05:24.607Z,77.40
2023-04-07T11:07:55.232Z,77.23
2023-04-07T11:10:23.391Z,77.92
2023-04-07T11:13:07.952Z,78.00
2023-04-07T11:15:37.880Z,77.95
2023-04-07T11:18:14.630Z,77.88
2023-04-07T11:20:45.002Z,77.62
2023-04-07T11:23:14.323Z,77.74
2023-04-07T11:25:44.235Z,77.77
2023-04-07T11:28:13.345Z,77.31
2023-04-07T11:30:46.340Z,77.45
2023-04-07T11:33:20.255Z,78.18
2023-04-07T11:35:56.881Z,77.61
2023-04-07T11:38:26.155Z,77.57
2023-04-07T11:40:54.399Z,77.48
2023-04-07T11:43:24.135Z,77.67
2023-04-07T11:46:11.996Z,77.16
2023-04-07T11:48:42.450Z,77.87
2023-04-07T11:51:17.058Z,78.51
2023-04-07T11:53:45.157Z,78.18
2023-04-07T11:56:18.804Z,78.26
2023-04-07T11:58:49.913Z,77.78
2023-04-07T12:01:17.732Z,78.72
2023-04-07T12:04:01.875Z,78.06
2023-04-07T12:06:30.992Z,77.76
2023-04-07T12:08:58.965Z,77.13
2023-04-07T12:11:26.752Z,77.72
2023-04-07T12:13:54.940Z,77.50
2023-04-07T12:16:23.054Z,77.74
2023-04-07T12:18:51.471Z,77.54
2023-04-07T12:21:20.643Z,77.30
2023-04-07T12:23:49.026Z,77.64
2023-04-07T12:26:17.022Z,77.12
2023-04-07T12:28:45.344Z,77.31
2023-04-07T12:31:13.137Z,77.56
2023-04-07T12:33:40.899Z,78.05
2023-04-07T12:36:09.003Z,77.92
2023-04-07T12:38:38.254Z,77.38
2023-04-07T12:41:06.113Z,78.06
2023-04-07T12:43:33.993Z,77.91
2023-04-07T12:46:01.925Z,78.06
2023-04-07T12:48:29.735Z,78.05
2023-04-07T12:50:57.586Z,77.95
2023-04-07T12:53:25.707Z,77.89
2023-04-07T12:55:54.846Z,78.25
2023-04-07T12:58:22.683Z,78.02
2023-04-07T13:00:50.543Z,77.66
2023-04-07T13:03:18.597Z,78.17
2023-04-07T13:05:46.528Z,78.07
2023-04-07T13:08:14.314Z,78.92
2023-04-07T13:10:42.520Z,78.95
2023-04-07T13:13:11.741Z,78.88
2023-04-07T13:15:39.588Z,79.22
2023-04-07T13:18:08.231Z,79.00
2023-04-07T13:20:36.079Z,79.25
2023-04-07T13:23:08.390Z,79.78
2023-04-07T13:25:37.788Z,79.82
2023-04-07T13:28:05.915Z,80.07
2023-04-07T13:30:35.188Z,79.77
2023-04-07T13:33:03.191Z,79.48
2023-04-07T13:35:35.593Z,78.86
2023-04-07T13:38:04.317Z,78.89
2023-04-07T13:40:32.227Z,78.79
2023-04-07T13:43:01.069Z,79.06
2023-04-07T13:45:28.936Z,79.14
2023-04-07T13:47:58.174Z,78.54
2023-04-07T13:50:26.212Z,78.48
2023-04-07T13:52:54.036Z,77.83
2023-04-07T13:55:21.819Z,78.05
2023-04-07T13:57:49.636Z,77.82
2023-04-07T14:00:18.178Z,77.98
2023-04-07T14:02:48.476Z,77.91
2023-04-07T14:05:17.903Z,78.05
2023-04-07T14:07:45.736Z,77.44
2023-04-07T14:10:13.482Z,77.42
2023-04-07T14:12:41.326Z,77.39
2023-04-07T14:15:10.209Z,77.42
2023-04-07T14:17:38.232Z,77.94
2023-04-07T14:20:07.182Z,78.48
2023-04-07T14:22:36.357Z,78.77
2023-04-07T14:25:04.744Z,78.52
2023-04-07T14:27:33.454Z,78.95
2023-04-07T14:30:01.643Z,78.78
2023-04-07T14:32:30.377Z,78.90
2023-04-07T14:34:59.315Z,78.62
2023-04-07T14:37:28.535Z,78.91
2023-04-07T14:42:29.740Z,78.61
2023-04-07T14:44:57.930Z,78.67
2023-04-07T14:47:26.503Z,78.46
2023-04-07T14:49:54.398Z,78.71
2023-04-07T14:52:22.822Z,78.59
2023-04-07T14:54:50.581Z,78.43
2023-04-07T14:57:19.740Z,78.84
2023-04-07T14:59:48.400Z,78.21
2023-04-07T15:02:16.331Z,77.95
2023-04-07T15:04:44.325Z,78.13
2023-04-07T15:07:12.406Z,77.92
2023-04-07T15:09:40.176Z,78.28
2023-04-07T15:12:07.907Z,78.39
2023-04-07T15:14:37.074Z,77.93
2023-04-07T15:17:04.803Z,78.39
2023-04-07T15:19:32.666Z,78.24
2023-04-07T15:22:00.470Z,78.18
2023-04-07T15:24:29.368Z,77.91
2023-04-07T15:26:57.121Z,78.23
2023-04-07T15:29:24.919Z,78.01
2023-04-07T15:31:54.218Z,77.49
2023-04-07T15:34:22.032Z,77.81
2023-04-07T15:36:49.823Z,78.11
2023-04-07T15:39:17.632Z,78.38
2023-04-07T15:41:45.476Z,77.99
2023-04-07T15:44:18.492Z,78.37
2023-04-07T15:46:46.286Z,78.50
2023-04-07T15:49:20.030Z,78.47
2023-04-07T15:51:47.872Z,78.80
2023-04-07T15:54:15.918Z,78.55
2023-04-07T15:56:43.706Z,78.52
2023-04-07T15:59:11.459Z,78.75
2023-04-07T16:01:39.486Z,78.91
2023-04-07T16:04:07.547Z,79.10
2023-04-07T16:06:36.741Z,79.11
2023-04-07T16:09:05.401Z,79.35
2023-04-07T16:11:33.296Z,79.10
2023-04-07T16:14:01.095Z,79.24
2023-04-07T16:16:28.850Z,79.25
2023-04-07T16:18:56.757Z,78.71
2023-04-07T16:21:24.521Z,79.14
2023-04-07T16:23:53.917Z,78.58
2023-04-07T16:26:21.826Z,78.50
2023-04-07T16:28:51.745Z,78.90
2023-04-07T16:31:19.746Z,78.86
2023-04-07T16:33:47.865Z,78.81
2023-04-07T16:36:16.085Z,78.62
2023-04-07T16:38:43.877Z,78.26
2023-04-07T16:41:13.066Z,78.50
2023-04-07T16:43:40.863Z,78.82
2023-04-07T16:46:08.834Z,78.80
2023-04-07T16:48:36.634Z,79.25
2023-04-07T16:51:04.432Z,78.88
2023-04-07T16:53:32.271Z,78.92
2023-04-07T16:56:00.045Z,79.25
2023-04-07T16:58:29.176Z,79.47
2023-04-07T17:00:57.011Z,79.23
2023-04-07T17:03:25.028Z,80.11
2023-04-07T17:05:53.017Z,79.51
2023-04-07T17:08:21.139Z,79.28
2023-04-07T17:10:48.982Z,79.22
2023-04-07T17:13:16.913Z,79.39
2023-04-07T17:15:46.769Z,79.69
2023-04-07T17:18:14.690Z,79.94
2023-04-07T17:20:42.517Z,79.73
2023-04-07T17:23:10.395Z,79.65
2023-04-07T17:25:38.237Z,79.88
2023-04-07T17:28:06.008Z,79.79
2023-04-07T17:30:34.137Z,79.96
2023-04-07T17:33:03.641Z,80.25
2023-04-07T17:35:31.776Z,80.38
2023-04-07T17:38:02.595Z,80.35
2023-04-07T17:40:30.400Z,80.57
2023-04-07T17:42:58.846Z,80.71
2023-04-07T17:45:26.775Z,81.06
2023-04-07T17:47:54.918Z,80.93
2023-04-07T17:50:24.206Z,81.40
2023-04-07T17:52:52.093Z,81.27
2023-04-07T17:55:20.301Z,81.65
2023-04-07T17:57:48.048Z,81.65
2023-04-07T18:00:16.221Z,81.74
2023-04-07T18:02:44.201Z,81.82
2023-04-07T18:05:12.833Z,81.86
2023-04-07T18:07:41.949Z,81.75
2023-04-07T18:10:11.011Z,81.90
2023-04-07T18:12:39.564Z,81.95
2023-04-07T18:15:08.625Z,81.97
2023-04-07T18:17:36.462Z,81.84
2023-04-07T18:20:04.611Z,81.92
2023-04-07T18:22:32.910Z,82.07
2023-04-07T18:25:02.076Z,81.90
2023-04-07T18:27:29.865Z,82.14
2023-04-07T18:29:57.670Z,82.38
2023-04-07T18:32:25.497Z,82.54
2023-04-07T18:34:54.941Z,82.66
2023-04-07T18:37:23.266Z,82.78
2023-04-07T18:39:52.105Z,82.83
2023-04-07T18:42:21.271Z,83.03
2023-04-07T18:44:49.093Z,83.00
2023-04-07T18:47:17.323Z,83.01
2023-04-07T18:49:45.067Z,83.25
2023-04-07T18:52:12.885Z,83.21
2023-04-07T18:54:40.800Z,83.33
2023-04-07T18:57:08.555Z,83.59
2023-04-07T18:59:37.685Z,83.64
2023-04-07T19:02:05.624Z,83.62
2023-04-07T19:04:33.441Z,83.78
2023-04-07T19:07:01.223Z,83.96
2023-04-07T19:09:29.620Z,83.70
2023-04-07T19:11:58.046Z,83.56
2023-04-07T19:14:26.030Z,83.63
2023-04-07T19:16:55.602Z,83.81
2023-04-07T19:19:23.406Z,83.97
2023-04-07T19:21:51.533Z,83.89
2023-04-07T19:24:19.291Z,83.91
2023-04-07T19:26:47.211Z,83.69
2023-04-07T19:29:14.985Z,83.79
2023-04-07T19:31:42.809Z,83.62
2023-04-07T19:34:12.037Z,83.99
2023-04-07T19:36:39.832Z,83.65
2023-04-07T19:39:07.600Z,83.84
2023-04-07T19:41:35.420Z,83.95
2023-04-07T19:44:03.165Z,84.11
2023-04-07T19:46:33.274Z,83.96
2023-04-07T19:49:01.256Z,84.35
2023-04-07T19:51:30.428Z,84.24
2023-04-07T19:53:58.201Z,84.20
2023-04-07T19:56:26.122Z,84.31
2023-04-07T19:58:53.952Z,84.38
2023-04-07T20:01:21.951Z,84.30
2023-04-07T20:03:49.886Z,84.47
2023-04-07T20:06:19.032Z,84.60
2023-04-07T20:08:48.657Z,84.49
2023-04-07T20:11:16.626Z,84.67
2023-04-07T20:13:44.472Z,84.89
2023-04-07T20:16:12.257Z,84.77
2023-04-07T20:18:40.018Z,84.85
2023-04-07T20:21:07.934Z,84.89
2023-04-07T20:23:35.794Z,85.12
2023-04-07T20:26:04.976Z,84.88
2023-04-07T20:28:32.756Z,85.46
2023-04-07T20:31:00.929Z,85.22
2023-04-07T20:33:28.774Z,85.26
2023-04-07T20:35:56.603Z,85.37
2023-04-07T20:38:25.042Z,85.17
2023-04-07T20:40:53.291Z,85.17
2023-04-07T20:43:23.706Z,85.24
2023-04-07T20:45:52.277Z,85.34
2023-04-07T20:48:23.847Z,85.08
2023-04-07T20:50:52.150Z,85.32
2023-04-07T20:53:20.056Z,84.69
2023-04-07T20:55:48.655Z,84.84
2023-04-07T20:58:17.791Z,84.75
2023-04-07T21:00:47.042Z,84.63
2023-04-07T21:03:15.214Z,84.47
2023-04-07T21:05:43.515Z,84.34
2023-04-07T21:08:13.230Z,84.55
2023-04-07T21:10:42.328Z,84.63
2023-04-07T21:13:10.091Z,84.45
2023-04-07T21:15:37.987Z,84.57
2023-04-07T21:18:07.250Z,84.63
2023-04-07T21:20:36.981Z,84.45
2023-04-07T21:23:05.382Z,84.63
2023-04-07T21:25:33.505Z,84.71
2023-04-07T21:28:01.297Z,84.64
2023-04-07T21:30:29.492Z,85.15
2023-04-07T21:32:57.470Z,85.45
2023-04-07T21:35:29.522Z,85.26
2023-04-07T21:37:57.676Z,85.61
2023-04-07T21:40:25.620Z,85.84
2023-04-07T21:42:53.689Z,85.74
2023-04-07T21:45:21.890Z,85.97
2023-04-07T21:47:49.959Z,85.98
2023-04-07T21:50:18.916Z,86.19
2023-04-07T21:52:50.741Z,86.18
2023-04-07T21:55:19.105Z,86.54
2023-04-07T21:57:47.036Z,86.99
2023-04-07T22:00:16.561Z,86.54
2023-04-07T22:02:45.484Z,87.26
2023-04-07T22:05:13.898Z,87.39
2023-04-07T22:07:41.770Z,87.08
2023-04-07T22:10:11.680Z,87.43
2023-04-07T22:12:39.526Z,87.28
2023-04-07T22:15:08.632Z,87.55
2023-04-07T22:17:36.662Z,87.18
2023-04-07T22:20:05.140Z,87.41
2023-04-07T22:22:33.406Z,87.28
2023-04-07T22:25:01.273Z,87.44
2023-04-07T22:27:30.651Z,87.54
2023-04-07T22:29:58.666Z,87.11
2023-04-07T22:32:26.822Z,87.56
2023-04-07T22:34:54.652Z,87.40
2023-04-07T22:37:22.717Z,87.90
2023-04-07T22:39:50.693Z,87.80
2023-04-07T22:42:18.519Z,87.71
2023-04-07T22:44:47.783Z,87.55
2023-04-07T22:47:16.066Z,87.75
2023-04-07T22:49:43.860Z,87.58
2023-04-07T22:52:11.967Z,87.40
2023-04-07T22:54:39.956Z,87.40
2023-04-07T22:57:07.764Z,87.44
2023-04-07T22:59:35.962Z,87.77
2023-04-07T23:02:05.498Z,87.78
2023-04-07T23:04:33.743Z,87.26
2023-04-07T23:07:01.850Z,87.48
2023-04-07T23:09:29.737Z,87.46
2023-04-07T23:11:57.933Z,87.42
2023-04-07T23:14:25.924Z,87.44
2023-04-07T23:16:54.562Z,87.17
2023-04-07T23:19:24.140Z,87.26
2023-04-07T23:21:52.306Z,87.69
2023-04-07T23:24:20.588Z,87.50
2023-04-07T23:26:48.361Z,87.43
2023-04-07T23:29:16.488Z,87.41
2023-04-07T23:31:44.401Z,87.54
2023-04-07T23:34:12.257Z,87.49
2023-04-07T23:36:42.069Z,87.88
2023-04-07T23:39:10.119Z,87.87
2023-04-07T23:41:38.286Z,87.67
2023-04-07T23:44:07.031Z,87.88
2023-04-07T23:46:35.664Z,87.80
2023-04-07T23:49:03.518Z,87.66
2023-04-07T23:51:31.739Z,87.80
2023-04-07T23:54:01.220Z,87.54
2023-04-07T23:56:29.781Z,87.61
2023-04-07T23:58:57.660Z,87.73
